Airfield :
LOGIN :

Register | Disclaimer

   EN    FR    IT 

 










Legend :    VFR   Marginal VFR   IFR   Intensive IFR   Very Intensive IFR
Visi :
Ceiling :
>= 8 km
>= 3000ft
5 to 8 km
1000 to 3000 ft
1500m to 5 km
500 to 1000 ft
800 to 1500m
200 to 500 ft
< 800m
< 200 ft
Symbols :   Thunderstorms  Fog  Heavy snow  Heavy precipitations  Wind > 20 kt
SIGMETs :     Misc.  Thunderstorms  Icing  Turbulence  Mountain Waves  Volcanic Ashes






- Airport Elevation : 2945 ft
- IATA code : RGS


LEBG - Burgos

CURRENT METAR :
  • 221430Z 19016KT 160V220 9999 SCT030 30/11 Q1011

EXPIRED METARs :
  • 221400Z 19015KT 9999 SCT030 30/11 Q1012
  • 221330Z 20015KT 160V230 9999 SCT030 30/09 Q1012
  • 221300Z 22013KT 180V240 9999 FEW030 30/10 Q1013
  • 221230Z 20016KT 170V230 9999 FEW030 29/10 Q1013
  • 221200Z 21017KT 9999 FEW030 29/09 Q1013

TAF TAF LEBG
Valid from the 22 at 15:00 until the 23 at 15:00 UTC


221400Z 2215/2315 23010KT 9999 SCT030 TX28/2216Z TN08/2305Z
TEMPO 2215/2219 23015G25KT
PROB30
TEMPO 2215/2219 RA SHRA SCT030TCU
BECMG 2219/2221 VRB05KT
PROB30
TEMPO 2302/2308 4000 BR BKN008



MET'MAP, your aeronautical weather chart ! - Copyright ORBIFLY December 2007 - Disclaimer

ORBIFLY MET'MAP TEAM :

Programming & Development : Alexandra Zaïnal
Original concept : Baudouin d'Aumeries
Technical & hardware support : Manuel Goepfert
Assistance : Marc-Olivier Méhu

Contact : metmap@orbifly.com




SOURCES & CREDITS :

   NOAA